Accueil
METAR-TAF:

METAR-TAF

Aéroports :

Fullerton Municipal Airport

Fullerton, Californie, États-Unis

latitude: 33-52-19N, longitude: 117-59-05W, altitude: 29 m

Observation

Le bulletin a été fait il y a 57 minutes, à 22:53 UTC
Vent 5 kt de sud/sud-ouest
Température 18°C
Humidité 59%
Pression 1020 hPa
Visibilité: 16.1 km
Ciel clair

METAR: KFUL 222253Z 20005KT 10SM CLR 18/10 A3011 RMK AO2 SLP195 T01780100

Heure: 15:50 (23:50 UTC)


TAF: absent

Observations et prévisions météorologiques de plus de 4000 aéroports (messages METAR et TAF).

Les stations disponibles sont représentées par des disques jaunes et rouges sur la carte.

Passer la souris dessus pour voir le nom de la station.

Cliquer dessus pour voir les observations et prévisions météorologiques.

Pour changer de carte: cliquez sur les boutons verts avec une croix noire pour zoomer, sur le bouton vert avec un tiret pour effectuer un zoom arrière, ou sur les flèches vertes pour les cartes adjacentes.


METAR-TAF: